Time,TemperatureF,DewpointF,PressureIn,WindDirection,WindDirectionDegrees,WindSpeedMPH,WindSpeedGustMPH,Humidity,HourlyPrecipIn,Conditions,Clouds,dailyrainin,SoftwareType,DateUTC
2013-06-20 00:02:00,59.0,53.0,30.13,SSE,158,0.0,0.0,80,0.00,,,0.00,,2013-06-20 04:02:00,
2013-06-20 00:11:00,59.0,53.0,30.13,SSE,158,0.0,0.0,81,0.00,,,0.00,,2013-06-20 04:11:00,
2013-06-20 00:23:00,58.0,52.0,30.14,SSE,158,2.0,2.0,81,0.00,,,0.00,,2013-06-20 04:23:00,
2013-06-20 00:34:00,58.0,53.0,30.14,SSE,158,0.0,0.0,82,0.00,,,0.00,,2013-06-20 04:34:00,
2013-06-20 00:43:00,58.0,53.0,30.14,SSE,158,0.0,0.0,82,0.00,,,0.00,,2013-06-20 04:43:00,
2013-06-20 00:53:00,58.0,53.0,30.14,SSE,158,0.0,0.0,83,0.00,,,0.00,,2013-06-20 04:53:00,
2013-06-20 01:02:00,58.0,53.0,30.15,SSE,158,0.0,0.0,83,0.00,,,0.00,,2013-06-20 05:02:00,
2013-06-20 01:12:00,58.0,53.0,30.15,SSE,158,0.0,0.0,83,0.00,,,0.00,,2013-06-20 05:12:00,
2013-06-20 01:22:00,58.0,53.0,30.15,SSE,158,0.0,0.0,83,0.00,,,0.00,,2013-06-20 05:22:00,
2013-06-20 01:33:00,58.0,53.0,30.16,SSE,158,0.0,0.0,84,0.00,,,0.00,,2013-06-20 05:33:00,
2013-06-20 01:44:00,58.0,53.0,30.15,SSE,158,0.0,0.0,84,0.00,,,0.00,,2013-06-20 05:44:00,
2013-06-20 01:52:00,58.0,54.0,30.15,SSE,158,0.0,0.0,85,0.00,,,0.00,,2013-06-20 05:52:00,
2013-06-20 02:02:00,57.0,53.0,30.15,SSE,158,1.0,1.0,85,0.00,,,0.00,,2013-06-20 06:02:00,
2013-06-20 02:11:00,57.0,53.0,30.15,SSE,158,0.0,0.0,86,0.00,,,0.00,,2013-06-20 06:11:00,
2013-06-20 02:22:00,57.0,53.0,30.15,SSE,158,0.0,0.0,86,0.00,,,0.00,,2013-06-20 06:22:00,
2013-06-20 02:34:00,57.0,53.0,30.14,SSE,158,0.0,0.0,86,0.00,,,0.00,,2013-06-20 06:34:00,
2013-06-20 02:43:00,57.0,53.0,30.16,SSE,158,0.0,0.0,86,0.00,,,0.00,,2013-06-20 06:43:00,
2013-06-20 02:53:00,57.0,53.0,30.16,SSE,158,0.0,0.0,86,0.00,,,0.00,,2013-06-20 06:53:00,
2013-06-20 03:01:00,57.0,53.0,30.16,SSE,158,0.0,0.0,86,0.00,,,0.00,,2013-06-20 07:01:00,
2013-06-20 03:12:00,57.0,53.0,30.16,SSE,158,0.0,0.0,86,0.00,,,0.00,,2013-06-20 07:12:00,
2013-06-20 03:22:00,57.0,53.0,30.16,SSE,158,0.0,0.0,86,0.00,,,0.00,,2013-06-20 07:22:00,
2013-06-20 03:34:00,56.0,52.0,30.16,SSE,158,0.0,0.0,87,0.00,,,0.00,,2013-06-20 07:34:00,
2013-06-20 03:44:00,56.0,52.0,30.16,SSE,158,0.0,0.0,86,0.00,,,0.00,,2013-06-20 07:44:00,
2013-06-20 03:52:00,56.0,52.0,30.17,SSE,158,0.0,0.0,87,0.00,,,0.00,,2013-06-20 07:52:00,
2013-06-20 04:02:00,56.0,52.0,30.17,SSE,158,0.0,0.0,87,0.00,,,0.00,,2013-06-20 08:02:00,
2013-06-20 04:11:00,56.0,52.0,30.17,SSE,158,0.0,0.0,87,0.00,,,0.00,,2013-06-20 08:11:00,
2013-06-20 04:22:00,56.0,52.0,30.17,SSE,158,0.0,0.0,87,0.00,,,0.00,,2013-06-20 08:22:00,
2013-06-20 04:34:00,56.0,52.0,30.17,SSE,158,0.0,0.0,87,0.00,,,0.00,,2013-06-20 08:34:00,
2013-06-20 04:43:00,56.0,52.0,30.18,SSE,158,0.0,0.0,87,0.00,,,0.00,,2013-06-20 08:43:00,
2013-06-20 04:53:00,56.0,52.0,30.17,SSE,158,0.0,0.0,87,0.00,,,0.00,,2013-06-20 08:53:00,
2013-06-20 05:02:00,56.0,52.0,30.17,SE,135,0.0,0.0,87,0.00,,,0.00,,2013-06-20 09:02:00,
2013-06-20 05:12:00,56.0,52.0,30.18,SE,135,0.0,0.0,88,0.00,,,0.00,,2013-06-20 09:12:00,
2013-06-20 05:22:00,56.0,52.0,30.18,SE,135,0.0,0.0,88,0.00,,,0.00,,2013-06-20 09:22:00,
2013-06-20 05:33:00,56.0,52.0,30.19,SE,135,0.0,0.0,88,0.00,,,0.00,,2013-06-20 09:33:00,
2013-06-20 05:42:00,56.0,52.0,30.19,SE,135,0.0,0.0,88,0.00,,,0.00,,2013-06-20 09:42:00,
2013-06-20 05:52:00,56.0,52.0,30.19,SE,135,0.0,0.0,88,0.00,,,0.00,,2013-06-20 09:52:00,
2013-06-20 06:01:00,56.0,52.0,30.19,SE,135,0.0,0.0,88,0.00,,,0.00,,2013-06-20 10:01:00,
2013-06-20 06:11:00,55.0,52.0,30.20,ESE,113,0.0,0.0,88,0.00,,,0.00,,2013-06-20 10:11:00,
2013-06-20 06:22:00,55.0,52.0,30.21,ESE,113,0.0,0.0,88,0.00,,,0.00,,2013-06-20 10:22:00,
2013-06-20 06:34:00,55.0,52.0,30.21,ESE,113,0.0,0.0,88,0.00,,,0.00,,2013-06-20 10:34:00,
2013-06-20 06:43:00,55.0,52.0,30.21,ESE,113,0.0,0.0,88,0.00,,,0.00,,2013-06-20 10:43:00,
2013-06-20 06:53:00,55.0,52.0,30.21,East,90,0.0,0.0,88,0.00,,,0.00,,2013-06-20 10:53:00,
2013-06-20 07:02:00,55.0,52.0,30.22,East,90,0.0,0.0,88,0.00,,,0.00,,2013-06-20 11:02:00,
2013-06-20 07:12:00,55.0,52.0,30.23,East,90,0.0,0.0,88,0.00,,,0.00,,2013-06-20 11:12:00,
2013-06-20 07:22:00,55.0,52.0,30.23,East,90,0.0,0.0,88,0.00,,,0.00,,2013-06-20 11:22:00,
2013-06-20 07:34:00,55.0,52.0,30.23,East,90,0.0,0.0,88,0.00,,,0.00,,2013-06-20 11:34:00,
2013-06-20 07:43:00,56.0,52.0,30.24,East,90,0.0,0.0,88,0.00,,,0.00,,2013-06-20 11:43:00,
2013-06-20 07:53:00,56.0,52.0,30.24,East,90,0.0,0.0,88,0.00,,,0.00,,2013-06-20 11:53:00,
2013-06-20 08:02:00,56.0,52.0,30.24,East,90,0.0,0.0,88,0.00,,,0.00,,2013-06-20 12:02:00,
2013-06-20 08:12:00,57.0,53.0,30.24,East,90,0.0,0.0,88,0.00,,,0.00,,2013-06-20 12:12:00,
2013-06-20 08:22:00,57.0,53.0,30.24,East,90,0.0,0.0,87,0.00,,,0.00,,2013-06-20 12:22:00,
2013-06-20 08:34:00,58.0,54.0,30.24,East,90,0.0,0.0,87,0.00,,,0.00,,2013-06-20 12:34:00,
2013-06-20 08:43:00,58.0,54.0,30.25,East,90,0.0,0.0,86,0.00,,,0.00,,2013-06-20 12:43:00,
2013-06-20 08:53:00,59.0,55.0,30.25,East,90,0.0,0.0,86,0.00,,,0.00,,2013-06-20 12:53:00,
2013-06-20 09:02:00,59.0,55.0,30.25,East,90,0.0,0.0,86,0.00,,,0.00,,2013-06-20 13:02:00,
2013-06-20 09:11:00,61.0,56.0,30.25,East,90,0.0,0.0,85,0.00,,,0.00,,2013-06-20 13:11:00,
2013-06-20 09:22:00,62.0,57.0,30.25,East,90,0.0,0.0,83,0.00,,,0.00,,2013-06-20 13:22:00,
2013-06-20 09:33:00,62.0,57.0,30.25,ENE,68,0.0,0.0,83,0.00,,,0.00,,2013-06-20 13:33:00,
2013-06-20 09:42:00,63.0,57.0,30.25,East,90,0.0,0.0,81,0.00,,,0.00,,2013-06-20 13:42:00,
2013-06-20 09:53:00,64.0,58.0,30.25,ESE,113,0.0,0.0,81,0.00,,,0.00,,2013-06-20 13:53:00,
2013-06-20 10:02:00,65.0,58.0,30.25,ESE,113,0.0,0.0,79,0.00,,,0.00,,2013-06-20 14:02:00,
2013-06-20 10:11:00,66.0,59.0,30.24,ESE,113,0.0,0.0,78,0.00,,,0.00,,2013-06-20 14:11:00,
2013-06-20 10:22:00,66.0,58.0,30.24,SSE,158,0.0,0.0,75,0.00,,,0.00,,2013-06-20 14:22:00,
2013-06-20 10:32:00,67.0,58.0,30.24,WSW,248,0.0,0.0,74,0.00,,,0.00,,2013-06-20 14:32:00,
2013-06-20 10:42:00,68.0,59.0,30.24,WSW,248,0.0,0.0,73,0.00,,,0.00,,2013-06-20 14:42:00,
2013-06-20 10:53:00,69.0,59.0,30.24,WSW,248,0.0,0.0,70,0.00,,,0.00,,2013-06-20 14:53:00,
2013-06-20 11:02:00,69.0,59.0,30.24,WSW,248,0.0,0.0,70,0.00,,,0.00,,2013-06-20 15:02:00,
2013-06-20 11:11:00,70.0,59.0,30.24,West,270,0.0,0.0,68,0.00,,,0.00,,2013-06-20 15:11:00,
2013-06-20 11:22:00,71.0,59.0,30.25,West,270,0.0,0.0,65,0.00,,,0.00,,2013-06-20 15:22:00,
2013-06-20 11:33:00,71.0,58.0,30.24,SW,225,0.0,0.0,64,0.00,,,0.00,,2013-06-20 15:33:00,
2013-06-20 11:53:00,72.0,57.0,30.24,WSW,248,0.0,0.0,60,0.00,,,0.00,,2013-06-20 15:53:00,
2013-06-20 12:02:00,73.0,58.0,30.25,SSW,203,0.0,0.0,60,0.00,,,0.00,,2013-06-20 16:02:00,
2013-06-20 12:12:00,73.0,58.0,30.24,NW,315,2.0,2.0,60,0.00,,,0.00,,2013-06-20 16:12:00,
2013-06-20 12:22:00,73.0,58.0,30.24,NW,315,2.0,2.0,60,0.00,,,0.00,,2013-06-20 16:22:00,
2013-06-20 12:33:00,73.0,58.0,30.24,NW,315,2.0,2.0,60,0.00,,,0.00,,2013-06-20 16:33:00,
2013-06-20 12:43:00,75.0,58.0,30.25,West,270,0.0,0.0,55,0.00,,,0.00,,2013-06-20 16:43:00,
2013-06-20 13:12:00,86.0,63.0,30.24,NE,45,0.0,0.0,47,0.00,,,0.00,,2013-06-20 17:12:00,
2013-06-20 13:22:00,88.0,63.0,30.24,WSW,248,0.0,0.0,44,0.00,,,0.00,,2013-06-20 17:22:00,
2013-06-20 14:12:00,88.0,62.0,30.23,WSW,248,0.0,0.0,42,0.00,,,0.00,,2013-06-20 18:12:00,
2013-06-20 14:22:00,89.0,62.0,30.23,WSW,248,3.0,4.0,41,0.00,,,0.00,,2013-06-20 18:22:00,
2013-06-20 14:33:00,89.0,61.0,30.23,WSW,248,0.0,2.0,39,0.00,,,0.00,,2013-06-20 18:33:00,
2013-06-20 14:43:00,89.0,61.0,30.23,WSW,248,0.0,0.0,40,0.00,,,0.00,,2013-06-20 18:43:00,
2013-06-20 15:11:00,89.0,60.0,30.22,WSW,248,0.0,0.0,38,0.00,,,0.00,,2013-06-20 19:11:00,
2013-06-20 15:22:00,89.0,60.0,30.22,WSW,248,0.0,0.0,38,0.00,,,0.00,,2013-06-20 19:22:00,
2013-06-20 15:34:00,87.0,58.0,30.22,WSW,248,1.0,5.0,38,0.00,,,0.00,,2013-06-20 19:34:00,
2013-06-20 15:43:00,84.0,58.0,30.21,NW,315,0.0,0.0,41,0.00,,,0.00,,2013-06-20 19:43:00,
2013-06-20 16:02:00,80.0,57.0,30.21,WSW,248,0.0,0.0,46,0.00,,,0.00,,2013-06-20 20:02:00,
2013-06-20 16:11:00,79.0,56.0,30.21,SE,135,0.0,2.0,45,0.00,,,0.00,,2013-06-20 20:11:00,
2013-06-20 16:33:00,78.0,56.0,30.22,SE,135,0.0,8.0,47,0.00,,,0.00,,2013-06-20 20:33:00,
2013-06-20 16:43:00,78.0,57.0,30.21,WSW,248,0.0,0.0,48,0.00,,,0.00,,2013-06-20 20:43:00,
2013-06-20 16:52:00,77.0,55.0,30.21,NNW,338,0.0,0.0,47,0.00,,,0.00,,2013-06-20 20:52:00,